createdAt,value
2023-04-13T00:00:47.928Z,9.61
2023-04-13T00:02:56.240Z,9.56
2023-04-13T00:04:59.018Z,9.52
2023-04-13T00:07:03.645Z,9.49
2023-04-13T00:09:08.953Z,9.44
2023-04-13T00:11:13.466Z,9.40
2023-04-13T00:13:16.232Z,9.38
2023-04-13T00:15:20.103Z,9.35
2023-04-13T00:17:25.457Z,9.34
2023-04-13T00:19:28.596Z,9.30
2023-04-13T00:21:31.619Z,9.25
2023-04-13T00:23:37.465Z,9.22
2023-04-13T00:25:43.426Z,9.19
2023-04-13T00:27:46.882Z,9.18
2023-04-13T00:29:49.879Z,9.18
2023-04-13T00:31:53.694Z,9.19
2023-04-13T00:33:57.296Z,9.20
2023-04-13T00:36:05.898Z,9.20
2023-04-13T00:38:09.386Z,9.21
2023-04-13T00:40:19.038Z,9.21
2023-04-13T00:42:22.799Z,9.20
2023-04-13T00:44:26.100Z,9.18
2023-04-13T00:46:29.586Z,9.17
2023-04-13T00:48:35.152Z,9.15
2023-04-13T00:50:39.647Z,9.14
2023-04-13T00:52:44.600Z,9.13
2023-04-13T00:54:51.773Z,9.13
2023-04-13T00:56:55.197Z,9.12
2023-04-13T00:58:59.176Z,9.08
2023-04-13T01:01:03.210Z,9.04
2023-04-13T01:03:06.043Z,9.02
2023-04-13T01:05:12.563Z,8.99
2023-04-13T01:07:32.321Z,8.97
2023-04-13T01:09:42.361Z,8.95
2023-04-13T01:11:58.029Z,8.94
2023-04-13T01:14:09.234Z,8.92
2023-04-13T01:16:22.204Z,8.93
2023-04-13T01:18:27.727Z,8.95
2023-04-13T01:20:33.522Z,8.96
2023-04-13T01:22:45.647Z,8.98
2023-04-13T01:25:15.201Z,8.98
2023-04-13T01:27:23.487Z,8.99
2023-04-13T01:29:28.619Z,9.01
2023-04-13T01:31:33.268Z,9.03
2023-04-13T01:33:40.603Z,9.01
2023-04-13T01:35:45.201Z,8.99
2023-04-13T01:37:54.352Z,8.97
2023-04-13T01:40:00.962Z,8.94
2023-04-13T01:42:28.974Z,8.90
2023-04-13T01:44:39.044Z,8.87
2023-04-13T01:46:48.644Z,8.83
2023-04-13T01:49:11.579Z,8.81
2023-04-13T01:51:31.365Z,8.77
2023-04-13T01:53:40.486Z,8.73
2023-04-13T01:55:49.044Z,8.71
2023-04-13T01:57:56.416Z,8.69
2023-04-13T02:00:00.245Z,8.70
2023-04-13T02:02:04.659Z,8.71
2023-04-13T02:04:11.560Z,8.74
2023-04-13T02:06:17.755Z,8.75
2023-04-13T02:08:21.144Z,8.76
2023-04-13T02:10:26.553Z,8.76
2023-04-13T02:12:37.827Z,8.76
2023-04-13T02:14:41.608Z,8.74
2023-04-13T02:16:44.533Z,8.74
2023-04-13T02:18:49.897Z,8.73
2023-04-13T02:21:19.173Z,8.70
2023-04-13T02:23:22.322Z,8.67
2023-04-13T02:25:28.100Z,8.64
2023-04-13T02:27:33.056Z,8.62
2023-04-13T02:29:54.458Z,8.59
2023-04-13T02:31:58.188Z,8.59
2023-04-13T02:34:01.786Z,8.60
2023-04-13T02:36:05.921Z,8.62
2023-04-13T02:38:12.012Z,8.67
2023-04-13T02:40:36.390Z,8.70
2023-04-13T02:42:39.970Z,8.74
2023-04-13T02:44:43.530Z,8.75
2023-04-13T02:46:46.613Z,8.74
2023-04-13T02:48:51.914Z,8.75
2023-04-13T02:50:58.085Z,8.75
2023-04-13T02:53:10.574Z,8.75
2023-04-13T02:55:16.428Z,8.73
2023-04-13T02:57:26.653Z,8.71
2023-04-13T02:59:30.081Z,8.68
2023-04-13T03:01:35.731Z,8.66
2023-04-13T03:03:41.947Z,8.63
2023-04-13T03:05:46.716Z,8.60
2023-04-13T03:07:53.655Z,8.58
2023-04-13T03:09:58.072Z,8.58
2023-04-13T03:12:02.757Z,8.61
2023-04-13T03:14:15.411Z,8.63
2023-04-13T03:16:25.128Z,8.63
2023-04-13T03:18:32.236Z,8.63
2023-04-13T03:20:35.402Z,8.66
2023-04-13T03:22:39.552Z,8.67
2023-04-13T03:24:42.411Z,8.66
2023-04-13T03:26:45.570Z,8.67
2023-04-13T03:28:52.027Z,8.65
2023-04-13T03:30:55.630Z,8.62
2023-04-13T03:32:59.175Z,8.60
2023-04-13T03:35:05.629Z,8.57
2023-04-13T03:37:10.866Z,8.53
2023-04-13T03:39:14.857Z,8.50
2023-04-13T03:41:19.597Z,8.47
2023-04-13T03:43:23.705Z,8.46
2023-04-13T03:45:49.431Z,8.45
2023-04-13T03:47:55.706Z,8.44
2023-04-13T03:49:59.408Z,8.44
2023-04-13T03:52:03.889Z,8.46
2023-04-13T03:54:13.587Z,8.49
2023-04-13T03:56:17.702Z,8.52
2023-04-13T03:58:22.076Z,8.52
2023-04-13T04:00:25.039Z,8.53
2023-04-13T04:02:43.686Z,8.52
2023-04-13T04:04:49.314Z,8.52
2023-04-13T04:06:53.201Z,8.51
2023-04-13T04:08:58.467Z,8.51
2023-04-13T04:11:15.357Z,8.49
2023-04-13T04:13:22.001Z,8.43
2023-04-13T04:15:29.355Z,8.43
2023-04-13T04:17:40.064Z,8.44
2023-04-13T04:19:43.502Z,8.44
2023-04-13T04:21:47.228Z,8.43
2023-04-13T04:23:52.432Z,8.41
2023-04-13T04:26:00.835Z,8.41
2023-04-13T04:28:09.229Z,8.38
2023-04-13T04:30:14.161Z,8.36
2023-04-13T04:32:18.655Z,8.32
2023-04-13T04:34:22.178Z,8.29
2023-04-13T04:36:26.788Z,8.25
2023-04-13T04:38:38.016Z,8.22
2023-04-13T04:40:46.293Z,8.20
2023-04-13T04:42:53.810Z,8.21
2023-04-13T04:45:09.196Z,8.24
2023-04-13T04:47:19.956Z,8.27
2023-04-13T04:49:46.148Z,8.27
2023-04-13T04:51:52.609Z,8.29
2023-04-13T04:53:58.729Z,8.31
2023-04-13T04:56:01.730Z,8.31
2023-04-13T04:58:20.377Z,8.31
2023-04-13T05:00:26.577Z,8.31
2023-04-13T05:02:44.644Z,8.29
2023-04-13T05:04:48.037Z,8.27
2023-04-13T05:06:50.797Z,8.27
2023-04-13T05:11:24.167Z,8.24
2023-04-13T05:13:27.736Z,8.23
2023-04-13T05:15:39.158Z,8.21
2023-04-13T05:17:46.783Z,8.16
2023-04-13T05:19:50.732Z,8.13
2023-04-13T05:22:01.171Z,8.10
2023-04-13T05:24:05.617Z,8.04
2023-04-13T05:26:13.199Z,8.00
2023-04-13T05:28:18.639Z,7.95
2023-04-13T05:30:28.369Z,7.93
2023-04-13T05:32:36.177Z,7.90
2023-04-13T05:34:39.672Z,7.87
2023-04-13T05:36:48.397Z,7.87
2023-04-13T05:38:52.374Z,7.88
2023-04-13T05:40:59.044Z,7.91
2023-04-13T05:43:10.337Z,7.93
2023-04-13T05:45:21.577Z,8.00
2023-04-13T05:47:38.237Z,8.07
2023-04-13T05:49:45.690Z,8.12
2023-04-13T05:51:49.484Z,8.16
2023-04-13T05:53:54.216Z,8.21
2023-04-13T05:55:59.953Z,8.25
2023-04-13T05:58:05.736Z,8.28
2023-04-13T06:00:10.669Z,8.33
2023-04-13T06:02:21.420Z,8.37
2023-04-13T06:04:27.729Z,8.46
2023-04-13T06:06:41.622Z,8.53
2023-04-13T06:08:46.941Z,8.58
2023-04-13T06:10:51.647Z,8.59
2023-04-13T06:12:55.487Z,8.61
2023-04-13T06:14:58.236Z,8.62
2023-04-13T06:17:09.031Z,8.65
2023-04-13T06:19:12.999Z,8.70
2023-04-13T06:21:15.902Z,8.72
2023-04-13T06:23:23.066Z,8.75
2023-04-13T06:25:31.033Z,8.73
2023-04-13T06:27:34.580Z,8.74
2023-04-13T06:29:41.571Z,8.77
2023-04-13T06:31:53.027Z,8.75
2023-04-13T06:34:00.425Z,8.72
2023-04-13T06:36:10.755Z,8.72
2023-04-13T06:38:14.765Z,8.71
2023-04-13T06:40:28.320Z,8.73
2023-04-13T06:42:40.583Z,8.76
2023-04-13T06:45:13.818Z,8.83
2023-04-13T06:47:21.606Z,8.91
2023-04-13T06:49:24.652Z,8.99
2023-04-13T06:51:28.063Z,9.08
2023-04-13T06:53:33.926Z,9.17
2023-04-13T06:55:37.282Z,9.21
2023-04-13T06:57:53.065Z,9.25
2023-04-13T06:59:56.607Z,9.28
2023-04-13T07:02:00.417Z,9.32
2023-04-13T07:04:08.348Z,9.39
2023-04-13T07:06:12.410Z,9.45
2023-04-13T07:08:16.549Z,9.50
2023-04-13T07:10:19.799Z,9.51
2023-04-13T07:12:23.237Z,9.48
2023-04-13T07:14:30.250Z,9.47
2023-04-13T07:16:35.766Z,9.47
2023-04-13T07:18:39.875Z,9.44
2023-04-13T07:20:42.891Z,9.39
2023-04-13T07:22:46.396Z,9.39
2023-04-13T07:24:51.822Z,9.38
2023-04-13T07:26:59.408Z,9.39
2023-04-13T07:29:02.350Z,9.40
2023-04-13T07:31:09.288Z,9.39
2023-04-13T07:33:14.423Z,9.43
2023-04-13T07:35:18.181Z,9.45
2023-04-13T07:37:21.697Z,9.48
2023-04-13T07:39:24.706Z,9.48
2023-04-13T07:41:29.548Z,9.47
2023-04-13T07:43:35.488Z,9.45
2023-04-13T07:45:39.962Z,9.40
2023-04-13T07:47:43.422Z,9.41
2023-04-13T07:49:47.328Z,9.39
2023-04-13T07:52:00.067Z,9.37
2023-04-13T07:54:05.096Z,9.37
2023-04-13T07:56:09.055Z,9.35
2023-04-13T07:58:14.634Z,9.35
2023-04-13T08:00:21.060Z,9.35
2023-04-13T08:02:26.352Z,9.33
2023-04-13T08:04:32.371Z,9.34
2023-04-13T08:06:43.716Z,9.35
2023-04-13T08:08:48.028Z,9.36
2023-04-13T08:10:52.205Z,9.35
2023-04-13T08:12:55.373Z,9.32
2023-04-13T08:15:00.928Z,9.31
2023-04-13T08:17:06.163Z,9.32
2023-04-13T08:19:09.776Z,9.34
2023-04-13T08:21:16.021Z,9.36
2023-04-13T08:23:21.190Z,9.38
2023-04-13T08:25:25.606Z,9.36
2023-04-13T08:27:31.934Z,9.34
2023-04-13T08:29:41.236Z,9.31
2023-04-13T08:31:47.676Z,9.30
2023-04-13T08:33:52.149Z,9.31
2023-04-13T08:35:57.196Z,9.35
2023-04-13T08:38:02.588Z,9.36
2023-04-13T08:40:08.223Z,9.36
2023-04-13T08:42:11.950Z,9.36
2023-04-13T08:44:15.783Z,9.38
2023-04-13T08:46:21.483Z,9.39
2023-04-13T08:48:30.311Z,9.39
2023-04-13T08:50:36.826Z,9.43
2023-04-13T08:52:40.275Z,9.46
2023-04-13T08:54:52.512Z,9.48
2023-04-13T08:57:00.186Z,9.52
2023-04-13T08:59:09.199Z,9.55
2023-04-13T09:01:16.456Z,9.56
2023-04-13T09:03:26.208Z,9.57
2023-04-13T09:05:31.649Z,9.57
2023-04-13T09:07:38.820Z,9.58
2023-04-13T09:09:48.090Z,9.62
2023-04-13T09:11:52.283Z,9.66
2023-04-13T09:13:55.368Z,9.75
2023-04-13T09:16:00.814Z,9.83
2023-04-13T09:18:16.492Z,9.91
2023-04-13T09:20:25.338Z,10.00
2023-04-13T09:22:29.290Z,10.07
2023-04-13T09:24:40.185Z,10.07
2023-04-13T09:26:47.835Z,10.06
2023-04-13T09:28:56.535Z,10.04
2023-04-13T09:31:05.883Z,10.03
2023-04-13T09:33:10.523Z,10.00
2023-04-13T09:35:14.158Z,9.94
2023-04-13T09:37:22.232Z,9.90
2023-04-13T09:39:29.747Z,9.88
2023-04-13T09:41:38.668Z,9.89
2023-04-13T09:43:45.445Z,9.89
2023-04-13T09:45:49.111Z,9.90
2023-04-13T09:47:53.259Z,9.93
2023-04-13T09:49:57.240Z,9.96
2023-04-13T09:52:00.171Z,9.98
2023-04-13T09:54:03.752Z,10.01
2023-04-13T09:56:07.110Z,10.03
2023-04-13T09:58:14.831Z,10.05
2023-04-13T10:00:22.465Z,10.06
2023-04-13T10:02:39.074Z,10.06
2023-04-13T10:04:45.889Z,10.05
2023-04-13T10:07:05.344Z,10.03
2023-04-13T10:09:10.807Z,10.02
2023-04-13T10:11:15.395Z,10.03
2023-04-13T10:13:23.506Z,10.02
2023-04-13T10:15:51.899Z,10.04
2023-04-13T10:18:12.854Z,10.07
2023-04-13T10:20:31.236Z,10.11
2023-04-13T10:22:36.235Z,10.15
2023-04-13T10:24:39.902Z,10.18
2023-04-13T10:26:46.166Z,10.23
2023-04-13T10:28:59.518Z,10.25
2023-04-13T10:31:05.597Z,10.31
2023-04-13T10:33:10.757Z,10.39
2023-04-13T10:35:16.470Z,10.46
2023-04-13T10:37:34.212Z,10.48
2023-04-13T10:39:38.746Z,10.51
2023-04-13T10:42:00.543Z,10.55
2023-04-13T10:44:12.385Z,10.59
2023-04-13T10:46:16.577Z,10.60
2023-04-13T10:48:21.863Z,10.63
2023-04-13T10:50:27.860Z,10.68
2023-04-13T10:52:31.719Z,10.73
2023-04-13T10:54:36.372Z,10.72
2023-04-13T10:56:40.892Z,10.68
2023-04-13T10:58:44.653Z,10.66
2023-04-13T11:00:58.413Z,10.65
2023-04-13T11:03:02.962Z,10.64
2023-04-13T11:05:06.846Z,10.64
2023-04-13T11:07:17.719Z,10.65
2023-04-13T11:09:22.840Z,10.68
2023-04-13T11:11:28.064Z,10.71
2023-04-13T11:13:33.918Z,10.74
2023-04-13T11:16:00.909Z,10.77
2023-04-13T11:18:06.686Z,10.80
2023-04-13T11:20:31.581Z,10.86
2023-04-13T11:22:35.932Z,10.93
2023-04-13T11:24:38.662Z,10.99
2023-04-13T11:26:43.261Z,11.06
2023-04-13T11:28:47.644Z,11.13
2023-04-13T11:31:21.612Z,11.20
2023-04-13T11:33:33.418Z,11.26
2023-04-13T11:35:49.733Z,11.28
2023-04-13T11:37:56.030Z,11.29
2023-04-13T11:39:59.451Z,11.29
2023-04-13T11:42:07.184Z,11.31
2023-04-13T11:44:13.074Z,11.31
2023-04-13T11:46:24.103Z,11.30
2023-04-13T11:48:29.197Z,11.29
2023-04-13T11:50:32.717Z,11.27
2023-04-13T11:52:36.017Z,11.25
2023-04-13T11:54:40.848Z,11.26
2023-04-13T11:56:43.784Z,11.24
2023-04-13T11:58:50.174Z,11.22
2023-04-13T12:00:56.963Z,11.23
2023-04-13T12:03:15.212Z,11.21
2023-04-13T12:05:28.833Z,11.18
2023-04-13T12:07:33.370Z,11.19
2023-04-13T12:09:56.320Z,11.19
2023-04-13T12:12:45.000Z,11.20
2023-04-13T12:18:49.540Z,11.21
2023-04-13T12:20:53.652Z,11.23
2023-04-13T12:25:17.822Z,11.28
2023-04-13T12:27:20.582Z,11.31
2023-04-13T12:29:23.444Z,11.29
2023-04-13T12:31:33.543Z,11.28
2023-04-13T12:33:38.738Z,11.26
2023-04-13T12:35:41.497Z,11.25
2023-04-13T12:37:44.281Z,11.23
2023-04-13T12:39:47.655Z,11.19
2023-04-13T12:41:50.497Z,11.17
2023-04-13T12:43:53.690Z,11.16
2023-04-13T12:45:58.367Z,11.14
2023-04-13T12:48:01.083Z,11.15
2023-04-13T12:50:08.709Z,11.15
2023-04-13T12:52:11.589Z,11.15
2023-04-13T12:54:14.698Z,11.14
2023-04-13T12:56:17.387Z,11.12
2023-04-13T12:58:20.069Z,11.10
2023-04-13T13:00:35.408Z,11.10
2023-04-13T13:02:40.341Z,11.09
2023-04-13T13:04:43.686Z,11.09
2023-04-13T13:06:46.716Z,11.09
2023-04-13T13:08:51.003Z,11.07
2023-04-13T13:10:53.725Z,11.08
2023-04-13T13:12:57.430Z,11.09
2023-04-13T13:15:01.517Z,11.07
2023-04-13T13:17:04.988Z,11.04
2023-04-13T13:19:14.324Z,11.02
2023-04-13T13:21:29.825Z,11.01
2023-04-13T13:23:33.514Z,11.00
2023-04-13T13:25:38.139Z,10.99
2023-04-13T13:28:10.478Z,11.02
2023-04-13T13:30:09.900Z,11.06
2023-04-13T13:32:12.903Z,11.10
2023-04-13T13:34:16.662Z,11.18
2023-04-13T13:36:42.797Z,11.27
2023-04-13T13:38:47.437Z,11.32
2023-04-13T13:40:59.252Z,11.39
2023-04-13T13:43:02.293Z,11.46
2023-04-13T13:45:05.973Z,11.51
2023-04-13T13:47:09.107Z,11.55
2023-04-13T13:49:14.649Z,11.58
2023-04-13T13:51:35.453Z,11.59
2023-04-13T13:53:38.617Z,11.56
2023-04-13T13:55:41.684Z,11.55
2023-04-13T13:57:44.264Z,11.55
2023-04-13T13:59:49.241Z,11.55
2023-04-13T14:01:53.103Z,11.55
2023-04-13T14:03:56.761Z,11.59
2023-04-13T14:06:24.763Z,11.62
2023-04-13T14:08:28.678Z,11.64
2023-04-13T14:10:32.146Z,11.63
2023-04-13T14:12:36.571Z,11.63
2023-04-13T14:14:39.647Z,11.62
2023-04-13T14:16:44.262Z,11.61
2023-04-13T14:18:49.054Z,11.61
2023-04-13T14:20:52.355Z,11.63
2023-04-13T14:22:57.200Z,11.63
2023-04-13T14:25:02.267Z,11.61
2023-04-13T14:27:06.446Z,11.62
2023-04-13T14:29:11.188Z,11.62
2023-04-13T14:31:17.286Z,11.64
2023-04-13T14:33:20.760Z,11.73
2023-04-13T14:35:23.416Z,11.82
2023-04-13T14:37:28.099Z,11.94
2023-04-13T14:39:32.507Z,12.03
2023-04-13T14:41:35.665Z,12.13
2023-04-13T14:43:38.983Z,12.24
2023-04-13T14:45:42.925Z,12.33
2023-04-13T14:47:48.742Z,12.43
2023-04-13T14:49:52.960Z,12.52
2023-04-13T14:51:58.386Z,12.58
2023-04-13T14:54:01.589Z,12.64
2023-04-13T14:56:05.472Z,12.67
2023-04-13T14:58:09.277Z,12.71
2023-04-13T15:00:22.249Z,12.77
2023-04-13T15:02:28.769Z,12.84
2023-04-13T15:04:32.736Z,12.88
2023-04-13T15:06:36.199Z,12.95
2023-04-13T15:08:40.081Z,13.02
2023-04-13T15:10:42.987Z,13.12
2023-04-13T15:12:46.276Z,13.24
2023-04-13T15:14:56.277Z,13.32
2023-04-13T15:17:04.602Z,13.34
2023-04-13T15:19:10.070Z,13.35
2023-04-13T15:21:13.905Z,13.33
2023-04-13T15:23:20.145Z,13.30
2023-04-13T15:25:24.626Z,13.23
2023-04-13T15:27:27.975Z,13.16
2023-04-13T15:29:34.715Z,13.12
2023-04-13T15:31:40.047Z,13.12
2023-04-13T15:33:44.677Z,13.11
2023-04-13T15:35:47.370Z,13.05
2023-04-13T15:37:50.837Z,12.98
2023-04-13T15:39:54.641Z,12.98
2023-04-13T15:42:00.386Z,12.95
2023-04-13T15:44:06.036Z,12.95
2023-04-13T15:46:09.031Z,12.94
2023-04-13T15:48:13.256Z,12.93
2023-04-13T15:50:18.905Z,12.92
2023-04-13T15:52:21.814Z,12.89
2023-04-13T15:54:24.422Z,12.86
2023-04-13T15:56:28.516Z,12.84
2023-04-13T15:58:33.269Z,12.80
2023-04-13T16:00:37.528Z,12.78
2023-04-13T16:02:41.112Z,12.75
2023-04-13T16:04:46.098Z,12.71
2023-04-13T16:07:05.141Z,12.71
2023-04-13T16:09:14.316Z,12.66
2023-04-13T16:11:21.174Z,12.59
2023-04-13T16:13:24.930Z,12.54
2023-04-13T16:15:31.044Z,12.52
2023-04-13T16:17:35.225Z,12.48
2023-04-13T16:19:40.062Z,12.44
2023-04-13T16:21:43.490Z,12.39
2023-04-13T16:23:46.911Z,12.35
2023-04-13T16:25:51.055Z,12.32
2023-04-13T16:27:56.281Z,12.29
2023-04-13T16:29:59.775Z,12.22
2023-04-13T16:32:09.117Z,12.17
2023-04-13T16:36:24.697Z,12.09
2023-04-13T16:38:31.294Z,12.06
2023-04-13T16:40:34.131Z,12.03
2023-04-13T16:42:38.957Z,12.01
2023-04-13T16:44:43.580Z,12.00
2023-04-13T16:46:46.665Z,11.99
2023-04-13T16:48:52.574Z,11.96
2023-04-13T16:51:04.677Z,11.95
2023-04-13T16:53:08.119Z,11.93
2023-04-13T16:55:16.316Z,11.89
2023-04-13T16:57:21.556Z,11.88
2023-04-13T16:59:24.123Z,11.86
2023-04-13T17:01:28.127Z,11.84
2023-04-13T17:03:32.988Z,11.82
2023-04-13T17:05:36.083Z,11.81
2023-04-13T17:07:40.925Z,11.80
2023-04-13T17:09:43.607Z,11.80
2023-04-13T17:11:47.581Z,11.80
2023-04-13T17:13:53.870Z,11.81
2023-04-13T17:15:56.852Z,11.80
2023-04-13T17:17:59.566Z,11.77
2023-04-13T17:20:05.728Z,11.73
2023-04-13T17:22:10.686Z,11.65
2023-04-13T17:24:14.994Z,11.58
2023-04-13T17:26:17.945Z,11.54
2023-04-13T17:28:24.469Z,11.51
2023-04-13T17:30:29.420Z,11.46
2023-04-13T17:32:35.115Z,11.42
2023-04-13T17:34:39.252Z,11.37
2023-04-13T17:36:42.285Z,11.33
2023-04-13T17:38:44.884Z,11.30
2023-04-13T17:40:51.069Z,11.26
2023-04-13T17:42:54.246Z,11.26
2023-04-13T17:44:56.788Z,11.27
2023-04-13T17:47:00.972Z,11.30
2023-04-13T17:49:04.898Z,11.31
2023-04-13T17:51:13.217Z,11.29
2023-04-13T17:53:16.499Z,11.28
2023-04-13T17:55:19.989Z,11.28
2023-04-13T17:57:24.184Z,11.29
2023-04-13T17:59:28.399Z,11.28
2023-04-13T18:01:33.062Z,11.26
2023-04-13T18:03:40.241Z,11.22
2023-04-13T18:05:47.255Z,11.17
2023-04-13T18:07:50.716Z,11.15
2023-04-13T18:09:53.875Z,11.14
2023-04-13T18:11:58.946Z,11.13
2023-04-13T18:14:03.860Z,11.12
2023-04-13T18:16:07.162Z,11.10
2023-04-13T18:18:10.477Z,11.07
2023-04-13T18:20:13.573Z,11.04
2023-04-13T18:22:17.361Z,11.02
2023-04-13T18:24:21.733Z,10.96
2023-04-13T18:26:24.843Z,10.89
2023-04-13T18:28:31.740Z,10.87
2023-04-13T18:30:34.926Z,10.86
2023-04-13T18:32:37.724Z,10.84
2023-04-13T18:34:44.050Z,10.81
2023-04-13T18:37:00.211Z,10.82
2023-04-13T18:39:04.196Z,10.81
2023-04-13T18:41:10.431Z,10.78
2023-04-13T18:43:13.759Z,10.78
2023-04-13T18:45:19.418Z,10.79
2023-04-13T18:47:29.045Z,10.81
2023-04-13T18:49:35.088Z,10.82
2023-04-13T18:51:37.873Z,10.79
2023-04-13T18:53:40.806Z,10.76
2023-04-13T18:55:51.965Z,10.71
2023-04-13T18:58:00.455Z,10.70
2023-04-13T19:00:10.501Z,10.70
2023-04-13T19:02:15.738Z,10.68
2023-04-13T19:04:18.918Z,10.64
2023-04-13T19:06:22.001Z,10.58
2023-04-13T19:08:24.827Z,10.54
2023-04-13T19:10:28.222Z,10.50
2023-04-13T19:12:32.849Z,10.46
2023-04-13T19:14:35.753Z,10.45
2023-04-13T19:16:48.223Z,10.43
2023-04-13T19:18:52.522Z,10.42
2023-04-13T19:20:56.679Z,10.41
2023-04-13T19:22:59.881Z,10.40
2023-04-13T19:25:03.498Z,10.37
2023-04-13T19:27:07.582Z,10.36
2023-04-13T19:29:14.384Z,10.34
2023-04-13T19:31:17.243Z,10.32
2023-04-13T19:33:20.055Z,10.28
2023-04-13T19:35:24.494Z,10.22
2023-04-13T19:37:28.504Z,10.17
2023-04-13T19:39:31.470Z,10.12
2023-04-13T19:41:37.481Z,10.09
2023-04-13T19:43:42.738Z,10.04
2023-04-13T19:45:46.631Z,10.03
2023-04-13T19:47:49.708Z,10.04
2023-04-13T19:49:52.375Z,10.05
2023-04-13T19:51:59.290Z,10.07
2023-04-13T19:54:05.690Z,10.10
2023-04-13T19:56:10.978Z,10.11
2023-04-13T19:58:14.311Z,10.11
2023-04-13T20:00:17.977Z,10.11
2023-04-13T20:02:20.933Z,10.11
2023-04-13T20:04:25.400Z,10.11
2023-04-13T20:06:28.997Z,10.09
2023-04-13T20:08:32.113Z,10.08
2023-04-13T20:10:34.962Z,10.07
2023-04-13T20:12:38.147Z,10.05
2023-04-13T20:14:42.462Z,10.05
2023-04-13T20:16:47.802Z,10.04
2023-04-13T20:18:51.191Z,10.03
2023-04-13T20:20:54.308Z,10.00
2023-04-13T20:22:59.982Z,9.98
2023-04-13T20:25:04.258Z,9.97
2023-04-13T20:27:10.616Z,9.96
2023-04-13T20:29:19.043Z,9.93
2023-04-13T20:31:23.625Z,9.89
2023-04-13T20:33:28.444Z,9.85
2023-04-13T20:35:32.623Z,9.82
2023-04-13T20:37:35.889Z,9.80
2023-04-13T20:39:52.602Z,9.78
2023-04-13T20:41:57.010Z,9.78
2023-04-13T20:44:00.337Z,9.74
2023-04-13T20:46:05.015Z,9.69
2023-04-13T20:50:27.001Z,9.66
2023-04-13T20:52:32.801Z,9.66
2023-04-13T20:54:35.638Z,9.64
2023-04-13T20:56:38.847Z,9.64
2023-04-13T20:58:42.355Z,9.65
2023-04-13T21:00:48.590Z,9.67
2023-04-13T21:02:52.990Z,9.67
2023-04-13T21:04:59.000Z,9.68
2023-04-13T21:07:03.350Z,9.69
2023-04-13T21:09:08.652Z,9.69
2023-04-13T21:11:11.635Z,9.69
2023-04-13T21:13:16.182Z,9.66
2023-04-13T21:15:18.820Z,9.63
2023-04-13T21:17:21.863Z,9.61
2023-04-13T21:19:25.797Z,9.59
2023-04-13T21:21:28.344Z,9.59
2023-04-13T21:23:31.132Z,9.56
2023-04-13T21:25:34.911Z,9.54
2023-04-13T21:27:38.591Z,9.53
2023-04-13T21:29:41.851Z,9.53
2023-04-13T21:31:44.944Z,9.52
2023-04-13T21:33:50.003Z,9.50
2023-04-13T21:35:52.908Z,9.49
2023-04-13T21:37:55.514Z,9.47
2023-04-13T21:39:59.029Z,9.46
2023-04-13T21:42:04.663Z,9.44
2023-04-13T21:44:22.308Z,9.40
2023-04-13T21:46:32.091Z,9.37
2023-04-13T21:48:34.897Z,9.33
2023-04-13T21:50:38.774Z,9.29
2023-04-13T21:52:42.186Z,9.27
2023-04-13T21:54:46.301Z,9.24
2023-04-13T21:56:49.387Z,9.21
2023-04-13T21:58:52.242Z,9.17
2023-04-13T22:00:56.207Z,9.13
2023-04-13T22:03:00.840Z,9.10
2023-04-13T22:05:07.654Z,9.09
2023-04-13T22:07:10.517Z,9.09
2023-04-13T22:09:13.597Z,9.07
2023-04-13T22:11:17.013Z,9.04
2023-04-13T22:13:21.244Z,8.99
2023-04-13T22:15:26.853Z,8.94
2023-04-13T22:17:30.530Z,8.91
2023-04-13T22:19:33.843Z,8.88
2023-04-13T22:21:40.830Z,8.85
2023-04-13T22:23:46.232Z,8.80
2023-04-13T22:25:53.679Z,8.76
2023-04-13T22:27:58.611Z,8.72
2023-04-13T22:30:02.721Z,8.74
2023-04-13T22:32:09.249Z,8.77
2023-04-13T22:34:11.902Z,8.82
2023-04-13T22:36:19.573Z,8.86
2023-04-13T22:38:22.215Z,8.89
2023-04-13T22:40:24.959Z,8.91
2023-04-13T22:42:28.488Z,8.91
2023-04-13T22:44:37.680Z,8.92
2023-04-13T22:46:42.483Z,8.92
2023-04-13T22:48:45.416Z,8.92
2023-04-13T22:50:51.047Z,8.91
2023-04-13T22:52:54.695Z,8.87
2023-04-13T22:54:57.339Z,8.82
2023-04-13T22:57:05.399Z,8.77
2023-04-13T22:59:08.429Z,8.70
2023-04-13T23:01:12.808Z,8.65
2023-04-13T23:03:16.093Z,8.63
2023-04-13T23:05:19.486Z,8.61
2023-04-13T23:07:22.278Z,8.60
2023-04-13T23:09:25.684Z,8.59
2023-04-13T23:11:28.704Z,8.56
2023-04-13T23:13:32.854Z,8.52
2023-04-13T23:15:36.108Z,8.45
2023-04-13T23:17:38.727Z,8.38
2023-04-13T23:19:42.384Z,8.32
2023-04-13T23:21:46.142Z,8.23
2023-04-13T23:23:49.236Z,8.18
2023-04-13T23:25:52.106Z,8.17
2023-04-13T23:27:54.855Z,8.19
2023-04-13T23:29:57.722Z,8.22
2023-04-13T23:32:00.749Z,8.27
2023-04-13T23:34:03.529Z,8.30
2023-04-13T23:36:07.105Z,8.33
2023-04-13T23:38:13.834Z,8.35
2023-04-13T23:40:18.101Z,8.35
2023-04-13T23:42:21.216Z,8.35
2023-04-13T23:44:24.098Z,8.36
2023-04-13T23:46:28.786Z,8.35
2023-04-13T23:48:31.781Z,8.34
2023-04-13T23:50:34.332Z,8.32
2023-04-13T23:52:37.130Z,8.28
2023-04-13T23:54:39.873Z,8.26
2023-04-13T23:56:43.027Z,8.25
2023-04-13T23:58:46.625Z,8.24
